sensor_id;sensor_type;location;lat;lon;timestamp;temperature;humidity
29479;DHT22;16437;41.836;23.480;2022-09-09T00:00:15;24.10;50.50
29479;DHT22;16437;41.836;23.480;2022-09-09T00:05:44;24.10;50.50
29479;DHT22;16437;41.836;23.480;2022-09-09T00:11:13;24.00;50.40
29479;DHT22;16437;41.836;23.480;2022-09-09T00:16:42;24.00;50.30
29479;DHT22;16437;41.836;23.480;2022-09-09T00:27:49;24.00;50.30
29479;DHT22;16437;41.836;23.480;2022-09-09T00:33:22;24.00;50.20
29479;DHT22;16437;41.836;23.480;2022-09-09T00:38:52;24.00;50.20
29479;DHT22;16437;41.836;23.480;2022-09-09T00:44:31;24.00;50.20
29479;DHT22;16437;41.836;23.480;2022-09-09T00:50:03;23.90;50.20
29479;DHT22;16437;41.836;23.480;2022-09-09T00:55:41;23.90;50.20
29479;DHT22;16437;41.836;23.480;2022-09-09T01:01:09;23.90;50.20
29479;DHT22;16437;41.836;23.480;2022-09-09T01:06:38;23.90;50.20
29479;DHT22;16437;41.836;23.480;2022-09-09T01:12:25;23.90;50.20
29479;DHT22;16437;41.836;23.480;2022-09-09T01:18:02;23.90;50.20
29479;DHT22;16437;41.836;23.480;2022-09-09T01:23:38;23.90;50.20
29479;DHT22;16437;41.836;23.480;2022-09-09T01:29:17;23.90;50.20
29479;DHT22;16437;41.836;23.480;2022-09-09T01:34:44;23.80;50.20
29479;DHT22;16437;41.836;23.480;2022-09-09T01:40:11;23.80;50.20
29479;DHT22;16437;41.836;23.480;2022-09-09T01:45:39;23.80;50.20
29479;DHT22;16437;41.836;23.480;2022-09-09T01:51:08;23.80;50.20
29479;DHT22;16437;41.836;23.480;2022-09-09T02:02:36;23.80;50.10
29479;DHT22;16437;41.836;23.480;2022-09-09T02:08:06;23.70;50.10
29479;DHT22;16437;41.836;23.480;2022-09-09T02:13:36;23.70;50.20
29479;DHT22;16437;41.836;23.480;2022-09-09T02:24:40;23.70;50.10
29479;DHT22;16437;41.836;23.480;2022-09-09T02:30:07;23.70;50.20
29479;DHT22;16437;41.836;23.480;2022-09-09T02:35:35;23.60;50.20
29479;DHT22;16437;41.836;23.480;2022-09-09T02:41:03;23.70;50.10
29479;DHT22;16437;41.836;23.480;2022-09-09T02:52:17;23.60;50.10
29479;DHT22;16437;41.836;23.480;2022-09-09T02:57:45;23.60;50.00
29479;DHT22;16437;41.836;23.480;2022-09-09T03:03:13;23.60;50.00
29479;DHT22;16437;41.836;23.480;2022-09-09T03:08:41;23.60;50.00
29479;DHT22;16437;41.836;23.480;2022-09-09T03:14:08;23.60;50.00
29479;DHT22;16437;41.836;23.480;2022-09-09T03:19:36;23.60;50.00
29479;DHT22;16437;41.836;23.480;2022-09-09T03:25:03;23.60;50.10
29479;DHT22;16437;41.836;23.480;2022-09-09T03:30:29;23.60;50.10
29479;DHT22;16437;41.836;23.480;2022-09-09T03:35:56;23.50;50.00
29479;DHT22;16437;41.836;23.480;2022-09-09T03:41:23;23.60;50.00
29479;DHT22;16437;41.836;23.480;2022-09-09T03:46:49;23.50;50.00
29479;DHT22;16437;41.836;23.480;2022-09-09T03:52:16;23.50;49.90
29479;DHT22;16437;41.836;23.480;2022-09-09T03:57:43;23.50;49.80
29479;DHT22;16437;41.836;23.480;2022-09-09T04:03:11;23.50;49.80
29479;DHT22;16437;41.836;23.480;2022-09-09T04:08:38;23.50;49.80
29479;DHT22;16437;41.836;23.480;2022-09-09T04:14:05;23.50;49.80
29479;DHT22;16437;41.836;23.480;2022-09-09T04:19:32;23.40;49.80
29479;DHT22;16437;41.836;23.480;2022-09-09T04:24:59;23.40;49.80
29479;DHT22;16437;41.836;23.480;2022-09-09T04:30:25;23.40;49.80
29479;DHT22;16437;41.836;23.480;2022-09-09T04:35:53;23.40;49.80
29479;DHT22;16437;41.836;23.480;2022-09-09T04:41:19;23.40;49.80
29479;DHT22;16437;41.836;23.480;2022-09-09T04:46:46;23.40;49.80
29479;DHT22;16437;41.836;23.480;2022-09-09T04:52:12;23.40;49.80
29479;DHT22;16437;41.836;23.480;2022-09-09T04:57:39;23.40;49.80
29479;DHT22;16437;41.836;23.480;2022-09-09T05:03:06;23.40;49.80
29479;DHT22;16437;41.836;23.480;2022-09-09T05:08:35;23.40;49.80
29479;DHT22;16437;41.836;23.480;2022-09-09T05:14:02;23.40;49.70
29479;DHT22;16437;41.836;23.480;2022-09-09T05:19:28;23.40;49.70
29479;DHT22;16437;41.836;23.480;2022-09-09T05:24:56;23.40;49.80
29479;DHT22;16437;41.836;23.480;2022-09-09T05:30:24;23.40;49.80
29479;DHT22;16437;41.836;23.480;2022-09-09T05:35:59;23.40;49.80
29479;DHT22;16437;41.836;23.480;2022-09-09T05:41:26;23.40;49.90
29479;DHT22;16437;41.836;23.480;2022-09-09T05:46:54;23.40;50.00
29479;DHT22;16437;41.836;23.480;2022-09-09T05:52:20;23.40;50.00
29479;DHT22;16437;41.836;23.480;2022-09-09T05:57:48;23.50;50.10
29479;DHT22;16437;41.836;23.480;2022-09-09T06:03:15;23.50;50.20
29479;DHT22;16437;41.836;23.480;2022-09-09T06:08:43;23.40;50.30
29479;DHT22;16437;41.836;23.480;2022-09-09T06:14:11;23.40;50.30
29479;DHT22;16437;41.836;23.480;2022-09-09T06:19:37;23.40;50.40
29479;DHT22;16437;41.836;23.480;2022-09-09T06:25:04;23.50;50.40
29479;DHT22;16437;41.836;23.480;2022-09-09T06:30:30;23.40;50.40
29479;DHT22;16437;41.836;23.480;2022-09-09T06:35:57;23.40;50.50
29479;DHT22;16437;41.836;23.480;2022-09-09T06:41:26;23.40;50.50
29479;DHT22;16437;41.836;23.480;2022-09-09T06:46:53;23.40;50.50
29479;DHT22;16437;41.836;23.480;2022-09-09T06:52:20;23.40;50.50
29479;DHT22;16437;41.836;23.480;2022-09-09T06:57:47;23.40;50.50
29479;DHT22;16437;41.836;23.480;2022-09-09T07:03:14;23.40;50.60
29479;DHT22;16437;41.836;23.480;2022-09-09T07:08:40;23.50;50.60
29479;DHT22;16437;41.836;23.480;2022-09-09T07:14:07;23.40;50.60
29479;DHT22;16437;41.836;23.480;2022-09-09T07:19:34;23.40;50.70
29479;DHT22;16437;41.836;23.480;2022-09-09T07:25:00;23.40;50.80
29479;DHT22;16437;41.836;23.480;2022-09-09T07:30:27;23.50;50.90
29479;DHT22;16437;41.836;23.480;2022-09-09T07:36:01;23.50;50.90
29479;DHT22;16437;41.836;23.480;2022-09-09T07:41:28;23.50;51.00
29479;DHT22;16437;41.836;23.480;2022-09-09T07:46:57;23.50;51.10
29479;DHT22;16437;41.836;23.480;2022-09-09T07:52:23;23.50;51.20
29479;DHT22;16437;41.836;23.480;2022-09-09T07:57:49;23.50;51.40
29479;DHT22;16437;41.836;23.480;2022-09-09T08:03:16;23.50;51.50
29479;DHT22;16437;41.836;23.480;2022-09-09T08:08:43;23.50;51.60
29479;DHT22;16437;41.836;23.480;2022-09-09T08:14:11;23.60;51.60
29479;DHT22;16437;41.836;23.480;2022-09-09T08:19:37;23.60;51.70
29479;DHT22;16437;41.836;23.480;2022-09-09T08:25:04;23.60;51.70
29479;DHT22;16437;41.836;23.480;2022-09-09T08:30:31;23.60;51.70
29479;DHT22;16437;41.836;23.480;2022-09-09T08:35:58;23.60;51.60
29479;DHT22;16437;41.836;23.480;2022-09-09T08:58:46;23.70;51.70
29479;DHT22;16437;41.836;23.480;2022-09-09T09:15:51;23.70;52.00
29479;DHT22;16437;41.836;23.480;2022-09-09T09:21:36;23.70;52.10
29479;DHT22;16437;41.836;23.480;2022-09-09T09:27:12;23.80;52.10
29479;DHT22;16437;41.836;23.480;2022-09-09T09:32:39;23.80;52.20
29479;DHT22;16437;41.836;23.480;2022-09-09T09:38:21;23.80;52.10
29479;DHT22;16437;41.836;23.480;2022-09-09T09:43:53;23.90;52.20
29479;DHT22;16437;41.836;23.480;2022-09-09T09:49:17;23.90;52.20
29479;DHT22;16437;41.836;23.480;2022-09-09T09:54:44;23.90;52.20
29479;DHT22;16437;41.836;23.480;2022-09-09T10:00:16;23.90;52.30
29479;DHT22;16437;41.836;23.480;2022-09-09T10:05:47;23.90;52.30
29479;DHT22;16437;41.836;23.480;2022-09-09T10:11:23;23.90;52.30
29479;DHT22;16437;41.836;23.480;2022-09-09T10:17:01;23.90;52.30
29479;DHT22;16437;41.836;23.480;2022-09-09T10:22:26;23.90;52.20
29479;DHT22;16437;41.836;23.480;2022-09-09T10:33:54;23.90;52.20
29479;DHT22;16437;41.836;23.480;2022-09-09T10:39:35;23.90;52.20
29479;DHT22;16437;41.836;23.480;2022-09-09T10:51:12;23.90;52.30
29479;DHT22;16437;41.836;23.480;2022-09-09T10:56:38;24.00;52.40
29479;DHT22;16437;41.836;23.480;2022-09-09T11:02:17;24.00;52.40
29479;DHT22;16437;41.836;23.480;2022-09-09T11:13:40;24.20;52.50
29479;DHT22;16437;41.836;23.480;2022-09-09T11:30:32;24.20;52.40
29479;DHT22;16437;41.836;23.480;2022-09-09T11:41:39;24.30;52.30
29479;DHT22;16437;41.836;23.480;2022-09-09T11:47:25;24.40;52.20
29479;DHT22;16437;41.836;23.480;2022-09-09T11:53:16;24.50;52.20
29479;DHT22;16437;41.836;23.480;2022-09-09T11:58:53;24.50;52.20
29479;DHT22;16437;41.836;23.480;2022-09-09T12:09:58;24.60;52.10
29479;DHT22;16437;41.836;23.480;2022-09-09T12:15:29;24.60;52.10
29479;DHT22;16437;41.836;23.480;2022-09-09T12:21:01;24.70;52.20
29479;DHT22;16437;41.836;23.480;2022-09-09T12:26:34;24.60;52.30
29479;DHT22;16437;41.836;23.480;2022-09-09T12:32:12;24.70;52.20
29479;DHT22;16437;41.836;23.480;2022-09-09T12:37:50;24.60;52.40
29479;DHT22;16437;41.836;23.480;2022-09-09T12:43:21;24.70;52.50
29479;DHT22;16437;41.836;23.480;2022-09-09T12:48:48;24.70;52.50
29479;DHT22;16437;41.836;23.480;2022-09-09T12:54:14;24.80;52.60
29479;DHT22;16437;41.836;23.480;2022-09-09T12:59:43;24.80;52.60
29479;DHT22;16437;41.836;23.480;2022-09-09T13:05:16;24.80;52.70
29479;DHT22;16437;41.836;23.480;2022-09-09T13:10:59;24.80;52.70
29479;DHT22;16437;41.836;23.480;2022-09-09T13:16:27;24.80;52.70
29479;DHT22;16437;41.836;23.480;2022-09-09T13:21:56;24.80;52.80
29479;DHT22;16437;41.836;23.480;2022-09-09T13:27:29;24.80;52.80
29479;DHT22;16437;41.836;23.480;2022-09-09T13:33:02;24.90;52.80
29479;DHT22;16437;41.836;23.480;2022-09-09T13:38:31;24.90;52.90
29479;DHT22;16437;41.836;23.480;2022-09-09T13:43:57;25.00;53.00
29479;DHT22;16437;41.836;23.480;2022-09-09T13:49:27;25.00;53.10
29479;DHT22;16437;41.836;23.480;2022-09-09T13:54:53;25.00;53.30
29479;DHT22;16437;41.836;23.480;2022-09-09T14:00:22;25.00;53.60
29479;DHT22;16437;41.836;23.480;2022-09-09T14:05:49;24.90;54.00
29479;DHT22;16437;41.836;23.480;2022-09-09T14:11:17;25.00;54.40
29479;DHT22;16437;41.836;23.480;2022-09-09T14:16:44;24.90;54.80
29479;DHT22;16437;41.836;23.480;2022-09-09T14:22:10;24.90;55.10
29479;DHT22;16437;41.836;23.480;2022-09-09T14:27:37;25.10;55.20
29479;DHT22;16437;41.836;23.480;2022-09-09T14:33:04;25.20;55.20
29479;DHT22;16437;41.836;23.480;2022-09-09T14:38:36;25.10;55.20
29479;DHT22;16437;41.836;23.480;2022-09-09T14:44:06;25.10;55.00
29479;DHT22;16437;41.836;23.480;2022-09-09T14:49:34;25.30;54.70
29479;DHT22;16437;41.836;23.480;2022-09-09T14:55:01;25.30;54.50
29479;DHT22;16437;41.836;23.480;2022-09-09T15:00:27;25.30;54.40
29479;DHT22;16437;41.836;23.480;2022-09-09T15:05:53;25.20;54.30
29479;DHT22;16437;41.836;23.480;2022-09-09T15:11:21;25.10;54.10
29479;DHT22;16437;41.836;23.480;2022-09-09T15:16:49;25.20;54.10
29479;DHT22;16437;41.836;23.480;2022-09-09T15:22:15;25.20;54.00
29479;DHT22;16437;41.836;23.480;2022-09-09T15:27:41;25.20;54.00
29479;DHT22;16437;41.836;23.480;2022-09-09T15:33:08;25.20;53.90
29479;DHT22;16437;41.836;23.480;2022-09-09T15:38:35;25.20;53.80
29479;DHT22;16437;41.836;23.480;2022-09-09T15:44:02;25.20;53.80
29479;DHT22;16437;41.836;23.480;2022-09-09T15:49:28;25.20;53.70
29479;DHT22;16437;41.836;23.480;2022-09-09T15:54:54;25.20;53.60
29479;DHT22;16437;41.836;23.480;2022-09-09T16:00:21;25.30;53.60
29479;DHT22;16437;41.836;23.480;2022-09-09T16:05:51;25.20;53.60
29479;DHT22;16437;41.836;23.480;2022-09-09T16:11:21;25.20;53.60
29479;DHT22;16437;41.836;23.480;2022-09-09T16:16:47;25.20;53.50
29479;DHT22;16437;41.836;23.480;2022-09-09T16:22:14;25.20;53.50
29479;DHT22;16437;41.836;23.480;2022-09-09T16:27:40;25.10;53.60
29479;DHT22;16437;41.836;23.480;2022-09-09T16:33:09;25.10;53.60
29479;DHT22;16437;41.836;23.480;2022-09-09T16:38:35;25.10;53.70
29479;DHT22;16437;41.836;23.480;2022-09-09T16:44:05;25.00;53.70
29479;DHT22;16437;41.836;23.480;2022-09-09T16:49:31;25.00;53.80
29479;DHT22;16437;41.836;23.480;2022-09-09T16:54:59;25.00;53.90
29479;DHT22;16437;41.836;23.480;2022-09-09T17:00:25;24.90;53.90
29479;DHT22;16437;41.836;23.480;2022-09-09T17:05:52;24.90;54.00
29479;DHT22;16437;41.836;23.480;2022-09-09T17:11:19;24.90;54.00
29479;DHT22;16437;41.836;23.480;2022-09-09T17:16:46;24.90;54.10
29479;DHT22;16437;41.836;23.480;2022-09-09T17:22:13;24.90;54.10
29479;DHT22;16437;41.836;23.480;2022-09-09T17:27:40;24.90;54.10
29479;DHT22;16437;41.836;23.480;2022-09-09T17:33:06;24.90;54.20
29479;DHT22;16437;41.836;23.480;2022-09-09T17:38:32;24.90;54.20
29479;DHT22;16437;41.836;23.480;2022-09-09T17:43:59;24.90;54.20
29479;DHT22;16437;41.836;23.480;2022-09-09T17:49:26;24.90;54.30
29479;DHT22;16437;41.836;23.480;2022-09-09T17:54:53;24.80;54.30
29479;DHT22;16437;41.836;23.480;2022-09-09T18:00:20;24.90;54.30
29479;DHT22;16437;41.836;23.480;2022-09-09T18:05:47;24.90;54.30
29479;DHT22;16437;41.836;23.480;2022-09-09T18:11:13;24.90;54.30
29479;DHT22;16437;41.836;23.480;2022-09-09T18:16:40;24.90;54.30
29479;DHT22;16437;41.836;23.480;2022-09-09T18:22:06;24.90;54.30
29479;DHT22;16437;41.836;23.480;2022-09-09T18:27:32;24.90;54.20
29479;DHT22;16437;41.836;23.480;2022-09-09T18:32:59;24.90;54.20
29479;DHT22;16437;41.836;23.480;2022-09-09T18:38:25;24.80;54.10
29479;DHT22;16437;41.836;23.480;2022-09-09T18:43:54;24.80;54.10
29479;DHT22;16437;41.836;23.480;2022-09-09T18:49:22;24.90;54.10
29479;DHT22;16437;41.836;23.480;2022-09-09T18:54:49;24.80;54.10
29479;DHT22;16437;41.836;23.480;2022-09-09T19:00:15;24.70;54.10
29479;DHT22;16437;41.836;23.480;2022-09-09T19:05:41;24.80;54.10
29479;DHT22;16437;41.836;23.480;2022-09-09T19:11:11;24.80;54.10
29479;DHT22;16437;41.836;23.480;2022-09-09T19:16:37;24.70;54.10
29479;DHT22;16437;41.836;23.480;2022-09-09T19:22:04;24.70;54.20
29479;DHT22;16437;41.836;23.480;2022-09-09T19:27:32;24.70;54.20
29479;DHT22;16437;41.836;23.480;2022-09-09T19:32:59;24.70;54.20
29479;DHT22;16437;41.836;23.480;2022-09-09T19:38:25;24.70;54.20
29479;DHT22;16437;41.836;23.480;2022-09-09T19:43:57;24.60;54.20
29479;DHT22;16437;41.836;23.480;2022-09-09T19:49:25;24.70;54.10
29479;DHT22;16437;41.836;23.480;2022-09-09T19:54:52;24.60;54.10
29479;DHT22;16437;41.836;23.480;2022-09-09T20:00:20;24.60;54.10
29479;DHT22;16437;41.836;23.480;2022-09-09T20:05:47;24.60;54.10
29479;DHT22;16437;41.836;23.480;2022-09-09T20:11:15;24.60;54.10
29479;DHT22;16437;41.836;23.480;2022-09-09T20:16:42;24.50;54.10
29479;DHT22;16437;41.836;23.480;2022-09-09T20:22:09;24.50;54.10
29479;DHT22;16437;41.836;23.480;2022-09-09T20:27:36;24.60;54.10
29479;DHT22;16437;41.836;23.480;2022-09-09T20:33:03;24.50;54.00
29479;DHT22;16437;41.836;23.480;2022-09-09T20:38:31;24.50;54.00
29479;DHT22;16437;41.836;23.480;2022-09-09T20:44:06;24.50;54.00
29479;DHT22;16437;41.836;23.480;2022-09-09T20:49:28;24.50;54.00
29479;DHT22;16437;41.836;23.480;2022-09-09T20:54:55;24.50;54.00
29479;DHT22;16437;41.836;23.480;2022-09-09T21:00:21;24.50;53.90
29479;DHT22;16437;41.836;23.480;2022-09-09T21:05:47;24.50;54.00
29479;DHT22;16437;41.836;23.480;2022-09-09T21:11:15;24.50;54.00
29479;DHT22;16437;41.836;23.480;2022-09-09T21:16:42;24.40;54.00
29479;DHT22;16437;41.836;23.480;2022-09-09T21:22:08;24.40;54.00
29479;DHT22;16437;41.836;23.480;2022-09-09T21:27:35;24.40;54.00
29479;DHT22;16437;41.836;23.480;2022-09-09T21:33:03;24.40;54.00
29479;DHT22;16437;41.836;23.480;2022-09-09T21:38:29;24.40;54.00
29479;DHT22;16437;41.836;23.480;2022-09-09T21:43:57;24.40;54.00
29479;DHT22;16437;41.836;23.480;2022-09-09T21:49:24;24.40;54.00
29479;DHT22;16437;41.836;23.480;2022-09-09T21:54:50;24.40;54.00
29479;DHT22;16437;41.836;23.480;2022-09-09T22:00:17;24.30;53.90
29479;DHT22;16437;41.836;23.480;2022-09-09T22:05:44;24.40;53.90
29479;DHT22;16437;41.836;23.480;2022-09-09T22:11:18;24.30;53.80
29479;DHT22;16437;41.836;23.480;2022-09-09T22:16:40;24.30;53.80
29479;DHT22;16437;41.836;23.480;2022-09-09T22:22:06;24.40;53.80
29479;DHT22;16437;41.836;23.480;2022-09-09T22:27:32;24.30;53.70
29479;DHT22;16437;41.836;23.480;2022-09-09T22:32:59;24.30;53.70
29479;DHT22;16437;41.836;23.480;2022-09-09T22:38:27;24.30;53.70
29479;DHT22;16437;41.836;23.480;2022-09-09T22:43:53;24.30;53.70
29479;DHT22;16437;41.836;23.480;2022-09-09T22:49:21;24.30;53.70
29479;DHT22;16437;41.836;23.480;2022-09-09T22:54:48;24.30;53.60
29479;DHT22;16437;41.836;23.480;2022-09-09T23:00:16;24.30;53.60
29479;DHT22;16437;41.836;23.480;2022-09-09T23:05:51;24.30;53.60
29479;DHT22;16437;41.836;23.480;2022-09-09T23:11:11;24.30;53.50
29479;DHT22;16437;41.836;23.480;2022-09-09T23:16:42;24.30;53.50
29479;DHT22;16437;41.836;23.480;2022-09-09T23:22:08;24.30;53.50
29479;DHT22;16437;41.836;23.480;2022-09-09T23:27:36;24.30;53.30
29479;DHT22;16437;41.836;23.480;2022-09-09T23:33:03;24.30;53.30
29479;DHT22;16437;41.836;23.480;2022-09-09T23:38:29;24.30;53.30
29479;DHT22;16437;41.836;23.480;2022-09-09T23:43:56;24.30;53.30
29479;DHT22;16437;41.836;23.480;2022-09-09T23:49:22;24.30;53.30
29479;DHT22;16437;41.836;23.480;2022-09-09T23:54:49;24.30;53.30
